createdAt,value
2022-10-23T10:14:37.514Z,3.60
2022-10-23T10:21:32.928Z,1.83
2022-10-23T10:24:05.396Z,2.83
2022-10-23T10:26:38.653Z,3.28
2022-10-23T10:29:17.861Z,5.35
2022-10-23T10:32:10.326Z,6.70
2022-10-23T10:34:49.047Z,4.60
2022-10-23T10:37:39.935Z,3.97
2022-10-23T10:40:29.885Z,3.95
2022-10-23T10:43:05.083Z,2.33
2022-10-23T10:45:38.108Z,3.10
2022-10-23T10:48:25.955Z,3.08
2022-10-23T10:50:53.438Z,3.17
2022-10-23T10:53:44.837Z,2.42
2022-10-23T10:56:15.903Z,3.30
2022-10-23T10:58:48.885Z,0.98
2022-10-23T11:01:57.668Z,4.35
2022-10-23T11:04:52.888Z,2.05
2022-10-23T11:07:22.505Z,2.80
2022-10-23T11:09:49.152Z,4.57
2022-10-23T11:12:21.572Z,5.05
2022-10-23T11:14:48.215Z,3.38
2022-10-23T11:17:24.455Z,2.22
2022-10-23T11:20:04.064Z,4.57
2022-10-23T11:22:37.303Z,2.28
2022-10-23T11:25:12.815Z,3.10
2022-10-23T11:28:16.950Z,2.33
2022-10-23T11:31:19.109Z,4.20
2022-10-23T11:34:07.662Z,2.38
2022-10-23T11:36:56.639Z,2.67
2022-10-23T11:39:27.917Z,4.18
2022-10-23T11:42:06.829Z,5.90
2022-10-23T11:44:43.662Z,2.20
2022-10-23T11:47:31.984Z,2.58
2022-10-23T11:50:06.669Z,1.55
2022-10-23T11:52:41.981Z,3.83
2022-10-23T11:55:25.177Z,2.75
2022-10-23T11:58:20.333Z,2.45
2022-10-23T12:00:56.733Z,3.10
2022-10-23T12:03:27.051Z,3.53
2022-10-23T12:05:59.227Z,4.30
2022-10-23T12:08:27.489Z,3.58
2022-10-23T12:10:55.276Z,1.67
2022-10-23T12:13:37.411Z,2.05
2022-10-23T12:16:05.835Z,2.08
2022-10-23T12:18:53.524Z,2.22
2022-10-23T12:21:22.191Z,1.23
2022-10-23T12:24:12.875Z,2.10
2022-10-23T12:27:01.119Z,2.83
2022-10-23T12:30:00.102Z,1.77
2022-10-23T12:32:54.172Z,0.80
2022-10-23T12:35:20.648Z,1.20
2022-10-23T12:38:09.863Z,1.02
2022-10-23T12:40:36.430Z,4.25
2022-10-23T12:43:03.086Z,2.25
2022-10-23T12:45:35.005Z,2.95
2022-10-23T12:48:01.722Z,2.08
2022-10-23T12:50:30.452Z,1.95
2022-10-23T12:53:01.838Z,1.90
2022-10-23T12:55:32.237Z,2.10
2022-10-23T12:58:01.843Z,1.60
2022-10-23T13:08:40.876Z,2.25
2022-10-23T13:11:08.764Z,1.20
2022-10-23T13:13:35.348Z,1.50
2022-10-23T13:16:02.059Z,1.35
2022-10-23T13:18:28.676Z,2.15
2022-10-23T13:20:57.486Z,2.78
2022-10-23T13:23:34.248Z,0.80
2022-10-23T13:26:05.701Z,0.98
2022-10-23T13:28:41.349Z,1.98
2022-10-23T13:31:10.888Z,0.93
2022-10-23T13:33:39.000Z,2.55
2022-10-23T13:36:14.466Z,1.65
2022-10-23T13:38:42.343Z,0.80
2022-10-23T13:41:17.194Z,6.38
2022-10-23T13:43:44.163Z,7.22
2022-10-23T13:46:17.787Z,0.80
2022-10-23T13:48:44.543Z,1.92
2022-10-23T13:51:28.438Z,1.35
2022-10-23T13:53:55.843Z,1.83
2022-10-23T13:56:23.362Z,1.58
2022-10-23T13:58:50.046Z,1.55
2022-10-23T14:01:22.264Z,0.77
2022-10-23T14:03:52.275Z,2.15
2022-10-23T14:06:19.029Z,2.15
2022-10-23T14:08:45.787Z,1.58
2022-10-23T14:11:12.746Z,2.22
2022-10-23T14:13:39.434Z,2.13
2022-10-23T14:16:06.500Z,2.83
2022-10-23T14:18:33.135Z,3.83
2022-10-23T14:21:08.239Z,1.73
2022-10-23T14:23:34.938Z,23.65
2022-10-23T14:26:02.867Z,18.23
2022-10-23T14:28:29.500Z,66.70
2022-10-23T14:30:56.099Z,39.10
2022-10-23T14:33:22.792Z,78.43
2022-10-23T14:35:52.425Z,58.20
2022-10-23T14:38:19.091Z,56.83
2022-10-23T14:40:45.640Z,43.00
2022-10-23T14:43:12.302Z,17.02
2022-10-23T14:45:38.980Z,3.80
2022-10-23T14:48:05.758Z,12.35
2022-10-23T14:50:32.659Z,22.42
2022-10-23T14:55:30.751Z,17.20
2022-10-23T14:57:57.400Z,17.75
2022-10-23T15:00:24.172Z,9.45
2022-10-23T15:02:50.833Z,2.33
2022-10-23T15:05:17.764Z,3.03
2022-10-23T15:07:44.443Z,3.35
2022-10-23T15:10:11.194Z,7.13
2022-10-23T15:12:38.451Z,6.47
2022-10-23T15:15:06.165Z,6.80
2022-10-23T15:17:34.041Z,6.65
2022-10-23T15:20:00.926Z,7.75
2022-10-23T15:22:27.792Z,9.10
2022-10-23T15:24:55.095Z,6.20
2022-10-23T15:27:21.792Z,6.82
2022-10-23T15:29:48.434Z,11.48
2022-10-23T15:32:15.139Z,17.00
2022-10-23T15:34:42.856Z,18.83
2022-10-23T15:37:09.860Z,18.13
2022-10-23T15:39:36.722Z,42.03
2022-10-23T15:42:04.612Z,36.85
2022-10-23T15:44:31.810Z,28.55
2022-10-23T15:46:58.551Z,46.60
2022-10-23T15:49:25.796Z,80.95
2022-10-23T15:51:52.598Z,90.13
2022-10-23T15:54:19.535Z,57.65
2022-10-23T15:56:47.262Z,44.92
2022-10-23T15:59:14.339Z,34.28
2022-10-23T16:01:41.103Z,20.02
2022-10-23T16:04:07.874Z,18.85
2022-10-23T16:06:34.582Z,21.35
2022-10-23T16:09:01.266Z,20.45
2022-10-23T16:11:29.766Z,29.40
2022-10-23T16:13:57.152Z,38.15
2022-10-23T16:16:23.992Z,48.65
2022-10-23T16:18:50.688Z,20.25
2022-10-23T16:21:20.695Z,18.42
2022-10-23T16:23:47.302Z,17.73
2022-10-23T16:26:13.971Z,20.55
2022-10-23T16:28:40.732Z,6.30
2022-10-23T16:31:12.911Z,13.15
2022-10-23T16:33:41.131Z,5.15
2022-10-23T16:36:08.628Z,2.88
2022-10-23T16:38:35.644Z,10.73
2022-10-23T16:41:03.695Z,11.85
2022-10-23T16:43:33.666Z,14.48
2022-10-23T16:46:19.821Z,17.63
2022-10-23T16:48:46.655Z,14.82
2022-10-23T16:51:14.854Z,10.15
2022-10-23T16:53:41.922Z,9.93
2022-10-23T16:56:09.527Z,13.52
2022-10-23T16:58:36.319Z,16.45
2022-10-23T17:01:05.936Z,21.58
2022-10-23T17:03:40.847Z,20.90
2022-10-23T17:06:11.247Z,39.28
2022-10-23T17:08:38.310Z,39.97
2022-10-23T17:11:23.740Z,39.78
2022-10-23T17:13:58.625Z,35.80
2022-10-23T17:16:39.232Z,32.70
2022-10-23T17:19:15.989Z,33.65
2022-10-23T17:21:47.883Z,32.67
2022-10-23T17:24:14.529Z,37.92
2022-10-23T17:26:41.150Z,28.05
2022-10-23T17:29:09.135Z,24.42
2022-10-23T17:31:39.843Z,34.55
2022-10-23T17:34:07.655Z,37.45
2022-10-23T17:36:37.092Z,17.52
2022-10-23T17:39:06.956Z,15.48
2022-10-23T17:41:34.552Z,23.65
2022-10-23T17:44:01.262Z,19.38
2022-10-23T17:46:29.198Z,21.08
2022-10-23T17:49:00.303Z,20.65
2022-10-23T17:51:28.138Z,15.43
2022-10-23T17:53:55.927Z,26.90
2022-10-23T17:56:24.439Z,24.83
2022-10-23T17:58:55.107Z,41.22
2022-10-23T18:01:25.162Z,27.00
2022-10-23T18:03:52.664Z,22.50
2022-10-23T18:06:23.449Z,18.13
2022-10-23T18:08:52.541Z,20.23
2022-10-23T18:11:27.947Z,31.65
2022-10-23T18:13:54.699Z,19.85
2022-10-23T18:16:21.377Z,26.88
2022-10-23T18:18:48.387Z,52.90
2022-10-23T18:21:15.951Z,48.47
2022-10-23T18:23:42.641Z,30.23
2022-10-23T18:26:23.104Z,20.05
2022-10-23T18:28:51.044Z,18.38
2022-10-23T18:31:18.283Z,10.98
2022-10-23T18:33:45.022Z,14.95
2022-10-23T18:36:22.794Z,12.60
2022-10-23T18:38:49.579Z,15.80
2022-10-23T18:41:16.635Z,15.00
2022-10-23T18:43:44.715Z,16.67
2022-10-23T18:46:14.289Z,24.92
